createdAt,value
2019-05-20T00:00:20.443Z,16.27
2019-05-20T00:02:48.787Z,15.43
2019-05-20T00:05:17.160Z,17.27
2019-05-20T00:07:45.882Z,15.70
2019-05-20T00:10:14.506Z,16.50
2019-05-20T00:12:43.163Z,14.77
2019-05-20T00:15:11.656Z,17.27
2019-05-20T00:17:39.997Z,15.63
2019-05-20T00:20:09.083Z,19.60
2019-05-20T00:22:37.418Z,18.40
2019-05-20T00:25:05.771Z,18.33
2019-05-20T00:27:34.412Z,16.23
2019-05-20T00:30:03.229Z,17.27
2019-05-20T00:32:40.680Z,16.93
2019-05-20T00:35:01.917Z,17.60
2019-05-20T00:37:30.592Z,15.47
2019-05-20T00:39:58.955Z,14.30
2019-05-20T00:42:27.296Z,15.10
2019-05-20T00:44:55.680Z,14.90
2019-05-20T00:47:24.040Z,17.87
2019-05-20T00:49:52.405Z,21.80
2019-05-20T00:52:21.032Z,16.23
2019-05-20T00:54:49.392Z,15.23
2019-05-20T00:57:17.760Z,17.57
2019-05-20T00:59:46.159Z,20.03
2019-05-20T01:02:14.531Z,18.23
2019-05-20T01:04:43.188Z,26.10
2019-05-20T01:07:11.636Z,19.90
2019-05-20T01:09:40.382Z,19.00
2019-05-20T01:12:08.808Z,24.33
2019-05-20T01:14:37.154Z,17.90
2019-05-20T01:17:05.606Z,18.87
2019-05-20T01:19:34.140Z,22.03
2019-05-20T01:22:02.495Z,20.83
2019-05-20T01:24:30.857Z,22.03
2019-05-20T01:26:59.303Z,23.27
2019-05-20T01:29:27.660Z,19.83
2019-05-20T01:31:56.095Z,18.07
2019-05-20T01:34:24.440Z,17.73
2019-05-20T01:36:52.811Z,19.13
2019-05-20T01:39:21.451Z,17.50
2019-05-20T01:41:49.886Z,16.40
2019-05-20T01:44:18.373Z,16.93
2019-05-20T01:46:46.770Z,17.50
2019-05-20T01:49:15.111Z,16.97
2019-05-20T01:51:43.829Z,22.23
2019-05-20T01:54:12.865Z,16.97
2019-05-20T01:56:41.287Z,19.50
2019-05-20T01:59:09.697Z,16.63
2019-05-20T02:01:38.154Z,17.80
2019-05-20T02:04:06.726Z,16.77
2019-05-20T02:06:35.149Z,18.80
2019-05-20T02:09:05.040Z,19.83
2019-05-20T02:11:33.399Z,15.70
2019-05-20T02:14:06.353Z,17.00
2019-05-20T02:16:34.866Z,15.83
2019-05-20T02:19:04.127Z,20.50
2019-05-20T02:21:33.712Z,16.13
2019-05-20T02:24:03.125Z,19.73
2019-05-20T02:26:31.943Z,19.20
2019-05-20T02:29:01.198Z,17.47
2019-05-20T02:31:30.070Z,19.17
2019-05-20T02:33:59.072Z,19.50
2019-05-20T02:36:28.220Z,17.40
2019-05-20T02:38:57.091Z,17.90
2019-05-20T02:41:26.328Z,18.83
2019-05-20T02:43:55.160Z,17.27
2019-05-20T02:46:24.487Z,17.33
2019-05-20T02:48:53.355Z,19.93
2019-05-20T02:51:31.586Z,19.70
2019-05-20T02:54:01.842Z,17.63
2019-05-20T02:56:31.293Z,19.33
2019-05-20T02:59:00.317Z,19.27
2019-05-20T03:01:29.736Z,21.70
2019-05-20T03:04:10.743Z,18.13
2019-05-20T03:06:29.076Z,17.90
2019-05-20T03:08:57.881Z,16.87
2019-05-20T03:11:27.044Z,17.33
2019-05-20T03:13:55.921Z,17.40
2019-05-20T03:16:24.739Z,18.60
2019-05-20T03:18:53.548Z,20.10
2019-05-20T03:21:22.799Z,20.30
2019-05-20T03:23:51.991Z,17.97
2019-05-20T03:26:20.885Z,18.40
2019-05-20T03:28:49.782Z,24.50
2019-05-20T03:31:18.877Z,23.10
2019-05-20T03:33:47.895Z,20.47
2019-05-20T03:36:16.728Z,22.83
2019-05-20T03:38:45.682Z,19.83
2019-05-20T03:41:14.840Z,18.10
2019-05-20T03:43:43.693Z,17.67
2019-05-20T03:46:12.521Z,18.53
2019-05-20T03:48:41.383Z,17.97
2019-05-20T03:51:10.216Z,18.70
2019-05-20T03:53:39.188Z,18.27
2019-05-20T03:56:07.995Z,17.50
2019-05-20T03:58:36.899Z,21.70
2019-05-20T04:01:06.110Z,18.33
2019-05-20T04:03:35.302Z,21.10
2019-05-20T04:06:04.526Z,18.90
2019-05-20T04:08:33.335Z,20.60
2019-05-20T04:11:02.225Z,20.50
2019-05-20T04:13:34.480Z,20.10
2019-05-20T04:16:01.989Z,19.00
2019-05-20T04:18:30.939Z,17.23
2019-05-20T04:20:59.732Z,19.20
2019-05-20T04:23:28.923Z,20.40
2019-05-20T04:25:57.799Z,19.47
2019-05-20T04:28:27.395Z,16.93
2019-05-20T04:30:56.682Z,16.70
2019-05-20T04:33:25.052Z,18.10
2019-05-20T04:35:53.837Z,18.03
2019-05-20T04:38:22.684Z,17.93
2019-05-20T04:40:51.503Z,19.07
2019-05-20T04:43:20.457Z,19.30
2019-05-20T04:45:50.456Z,19.33
2019-05-20T04:48:19.342Z,18.83
2019-05-20T04:50:48.227Z,26.17
2019-05-20T04:53:17.056Z,21.67
2019-05-20T04:55:46.377Z,23.73
2019-05-20T04:58:15.282Z,21.07
2019-05-20T05:00:52.498Z,22.57
2019-05-20T05:03:21.562Z,24.70
2019-05-20T05:05:51.572Z,19.03
2019-05-20T05:08:21.116Z,21.73
2019-05-20T05:10:50.486Z,23.70
2019-05-20T05:13:19.959Z,19.83
2019-05-20T05:15:49.042Z,19.73
2019-05-20T05:18:18.063Z,20.07
2019-05-20T05:20:47.236Z,22.40
2019-05-20T05:23:16.509Z,23.03
2019-05-20T05:25:45.761Z,21.37
2019-05-20T05:28:14.780Z,25.13
2019-05-20T05:30:46.098Z,22.23
2019-05-20T05:33:15.069Z,22.97
2019-05-20T05:35:52.853Z,23.10
2019-05-20T05:38:15.106Z,22.90
2019-05-20T05:40:43.979Z,21.90
2019-05-20T05:43:13.163Z,21.87
2019-05-20T05:45:41.995Z,19.97
2019-05-20T05:48:10.898Z,23.50
2019-05-20T05:50:39.789Z,21.70
2019-05-20T05:53:08.621Z,19.97
2019-05-20T05:55:37.521Z,21.47
2019-05-20T05:58:08.709Z,22.03
2019-05-20T06:00:37.066Z,21.73
2019-05-20T06:03:05.922Z,20.50
2019-05-20T06:05:34.734Z,21.60
2019-05-20T06:08:03.667Z,22.60
2019-05-20T06:10:35.517Z,22.97
2019-05-20T06:13:03.144Z,22.87
2019-05-20T06:15:32.192Z,23.20
2019-05-20T06:18:01.074Z,24.90
2019-05-20T06:20:29.980Z,23.40
2019-05-20T06:22:58.895Z,20.47
2019-05-20T06:25:27.920Z,24.47
2019-05-20T06:27:56.703Z,24.20
2019-05-20T06:30:37.555Z,21.37
2019-05-20T06:33:06.428Z,21.20
2019-05-20T06:35:35.410Z,21.67
2019-05-20T06:38:06.425Z,21.47
2019-05-20T06:40:35.788Z,20.83
2019-05-20T06:43:04.836Z,22.30
2019-05-20T06:45:33.963Z,22.40
2019-05-20T06:48:02.774Z,21.37
2019-05-20T06:50:31.584Z,21.87
2019-05-20T06:53:00.505Z,21.00
2019-05-20T06:55:29.701Z,21.60
2019-05-20T06:57:58.503Z,22.10
2019-05-20T07:00:35.208Z,21.90
2019-05-20T07:03:04.901Z,19.17
2019-05-20T07:05:34.002Z,21.87
2019-05-20T07:08:03.498Z,21.87
2019-05-20T07:10:32.581Z,21.90
2019-05-20T07:13:01.485Z,22.67
2019-05-20T07:15:30.582Z,20.43
2019-05-20T07:17:59.466Z,19.90
2019-05-20T07:20:28.773Z,23.60
2019-05-20T07:22:57.975Z,21.43
2019-05-20T07:25:26.927Z,24.43
2019-05-20T07:27:55.746Z,22.73
2019-05-20T07:30:24.955Z,24.70
2019-05-20T07:32:54.143Z,21.70
2019-05-20T07:35:30.480Z,22.93
2019-05-20T07:37:53.797Z,22.43
2019-05-20T07:40:35.254Z,24.43
2019-05-20T07:43:05.018Z,24.07
2019-05-20T07:45:36.408Z,23.17
2019-05-20T07:48:06.293Z,23.10
2019-05-20T07:50:38.419Z,23.17
2019-05-20T07:53:07.752Z,23.37
2019-05-20T07:55:41.921Z,23.13
2019-05-20T07:58:12.892Z,24.33
2019-05-20T08:00:42.168Z,25.20
2019-05-20T08:03:11.122Z,24.83
2019-05-20T08:05:40.020Z,24.03
2019-05-20T08:08:09.254Z,24.60
2019-05-20T08:10:57.284Z,24.10
2019-05-20T08:13:26.188Z,25.40
2019-05-20T08:15:55.296Z,23.10
2019-05-20T08:18:24.173Z,23.27
2019-05-20T08:20:52.990Z,23.73
2019-05-20T08:23:21.909Z,26.23
2019-05-20T08:25:50.884Z,23.63
2019-05-20T08:28:19.837Z,25.70
2019-05-20T08:30:48.828Z,21.87
2019-05-20T08:33:17.721Z,24.33
2019-05-20T08:35:46.609Z,20.57
2019-05-20T08:38:15.582Z,21.43
2019-05-20T08:40:48.350Z,24.17
2019-05-20T08:43:15.420Z,23.40
2019-05-20T08:45:44.565Z,23.03
2019-05-20T08:48:13.380Z,20.07
2019-05-20T08:50:42.633Z,20.70
2019-05-20T08:53:11.461Z,20.60
2019-05-20T08:55:40.734Z,20.83
2019-05-20T08:58:09.686Z,20.63
2019-05-20T09:00:38.776Z,20.43
2019-05-20T09:03:07.668Z,19.73
2019-05-20T09:05:36.536Z,17.57
2019-05-20T09:08:05.512Z,18.67
2019-05-20T09:10:35.116Z,19.50
2019-05-20T09:13:04.090Z,20.83
2019-05-20T09:15:33.081Z,21.83
2019-05-20T09:18:02.053Z,21.63
2019-05-20T09:20:31.088Z,22.97
2019-05-20T09:23:02.620Z,20.10
2019-05-20T09:25:31.659Z,20.03
2019-05-20T09:28:01.268Z,20.23
2019-05-20T09:30:30.283Z,21.73
2019-05-20T09:32:59.208Z,19.63
2019-05-20T09:35:28.225Z,19.00
2019-05-20T09:37:57.231Z,18.93
2019-05-20T09:40:40.438Z,21.87
2019-05-20T09:43:09.655Z,19.30
2019-05-20T09:45:38.636Z,20.40
2019-05-20T09:48:08.299Z,16.77
2019-05-20T09:50:37.273Z,19.83
2019-05-20T09:53:07.548Z,18.27
2019-05-20T09:55:36.835Z,20.40
2019-05-20T09:58:06.426Z,21.10
2019-05-20T10:00:35.495Z,20.43
2019-05-20T10:03:05.830Z,20.33
2019-05-20T10:05:37.402Z,19.80
2019-05-20T10:08:06.310Z,20.23
2019-05-20T10:10:35.173Z,24.60
2019-05-20T10:13:04.546Z,20.43
2019-05-20T10:15:33.406Z,22.00
2019-05-20T10:18:02.298Z,21.47
2019-05-20T10:20:31.282Z,24.97
2019-05-20T10:23:00.483Z,24.90
2019-05-20T10:25:29.642Z,26.10
2019-05-20T10:27:58.657Z,24.97
2019-05-20T10:30:27.922Z,21.63
2019-05-20T10:32:56.749Z,24.33
2019-05-20T10:35:25.742Z,23.87
2019-05-20T10:37:54.633Z,23.83
2019-05-20T10:40:23.583Z,22.03
2019-05-20T10:42:52.416Z,20.20
2019-05-20T10:45:21.421Z,22.13
2019-05-20T10:47:50.320Z,23.90
2019-05-20T10:50:19.280Z,24.03
2019-05-20T10:52:48.105Z,22.50
2019-05-20T10:55:18.014Z,21.53
2019-05-20T10:57:47.173Z,21.00
2019-05-20T11:00:18.827Z,20.73
2019-05-20T11:02:47.780Z,18.67
2019-05-20T11:05:17.957Z,19.60
2019-05-20T11:07:47.968Z,17.70
2019-05-20T11:10:18.282Z,17.83
2019-05-20T11:12:47.515Z,16.70
2019-05-20T11:15:16.817Z,14.60
2019-05-20T11:17:45.755Z,16.87
2019-05-20T11:20:15.253Z,18.63
2019-05-20T11:22:44.093Z,21.27
2019-05-20T11:25:13.066Z,16.97
2019-05-20T11:27:42.304Z,14.00
2019-05-20T11:30:11.674Z,14.10
2019-05-20T11:32:40.568Z,13.23
2019-05-20T11:35:09.826Z,16.23
2019-05-20T11:37:38.666Z,12.27
2019-05-20T11:40:09.647Z,12.47
2019-05-20T11:42:39.423Z,12.93
2019-05-20T11:45:09.234Z,11.07
2019-05-20T11:47:38.217Z,12.93
2019-05-20T11:50:07.667Z,11.77
2019-05-20T11:52:36.663Z,12.03
2019-05-20T11:55:06.327Z,11.60
2019-05-20T11:57:35.364Z,13.83
2019-05-20T12:00:05.344Z,14.30
2019-05-20T12:02:34.168Z,14.83
2019-05-20T12:05:03.079Z,12.53
2019-05-20T12:07:31.967Z,13.30
2019-05-20T12:10:00.854Z,13.47
2019-05-20T12:12:29.669Z,14.27
2019-05-20T12:14:58.837Z,15.00
2019-05-20T12:17:27.910Z,13.60
2019-05-20T12:19:56.724Z,12.50
2019-05-20T12:22:25.601Z,15.03
2019-05-20T12:24:54.416Z,12.87
2019-05-20T12:27:23.293Z,13.70
2019-05-20T12:29:52.130Z,13.50
2019-05-20T12:32:20.935Z,13.90
2019-05-20T12:34:49.865Z,14.33
2019-05-20T12:37:18.681Z,12.17
2019-05-20T12:39:47.683Z,13.30
2019-05-20T12:42:16.482Z,12.67
2019-05-20T12:44:45.478Z,12.63
2019-05-20T12:47:14.329Z,10.70
2019-05-20T12:49:43.597Z,10.70
2019-05-20T12:52:12.518Z,12.37
2019-05-20T12:54:41.396Z,10.67
2019-05-20T12:57:10.344Z,10.90
2019-05-20T12:59:39.283Z,10.17
2019-05-20T13:02:08.145Z,12.97
2019-05-20T13:04:36.954Z,10.40
2019-05-20T13:07:05.772Z,11.77
2019-05-20T13:09:34.662Z,10.87
2019-05-20T13:12:03.616Z,10.50
2019-05-20T13:14:32.420Z,11.40
2019-05-20T13:17:01.624Z,11.30
2019-05-20T13:19:30.799Z,11.30
2019-05-20T13:22:00.032Z,11.90
2019-05-20T13:24:28.839Z,10.87
2019-05-20T13:26:57.632Z,10.53
2019-05-20T13:29:26.461Z,11.30
2019-05-20T13:31:55.251Z,10.17
2019-05-20T13:34:24.405Z,10.07
2019-05-20T13:36:53.710Z,10.50
2019-05-20T13:39:22.641Z,11.27
2019-05-20T13:41:51.463Z,12.27
2019-05-20T13:44:20.405Z,10.60
2019-05-20T13:46:49.297Z,9.70
2019-05-20T13:49:18.145Z,10.57
2019-05-20T13:51:46.957Z,11.20
2019-05-20T13:54:16.168Z,9.53
2019-05-20T13:56:45.130Z,10.30
2019-05-20T13:59:13.964Z,10.07
2019-05-20T14:01:42.756Z,9.40
2019-05-20T14:04:11.579Z,8.30
2019-05-20T14:06:41.072Z,10.73
2019-05-20T14:09:10.187Z,10.20
2019-05-20T14:11:39.060Z,11.67
2019-05-20T14:14:07.892Z,12.77
2019-05-20T14:16:36.718Z,10.80
2019-05-20T14:19:05.605Z,8.73
2019-05-20T14:21:34.445Z,12.83
2019-05-20T14:24:03.276Z,9.60
2019-05-20T14:26:32.381Z,8.37
2019-05-20T14:29:01.293Z,11.57
2019-05-20T14:31:30.173Z,11.00
2019-05-20T14:33:59.446Z,9.70
2019-05-20T14:36:39.346Z,11.57
2019-05-20T14:38:58.899Z,13.70
2019-05-20T14:41:27.769Z,11.23
2019-05-20T14:43:56.709Z,11.77
2019-05-20T14:46:25.653Z,11.67
2019-05-20T14:48:54.486Z,14.50
2019-05-20T14:51:23.331Z,13.97
2019-05-20T14:53:52.220Z,16.20
2019-05-20T14:56:21.637Z,16.80
2019-05-20T14:58:50.526Z,17.83
2019-05-20T15:01:19.352Z,23.53
2019-05-20T15:03:48.178Z,20.10
2019-05-20T15:06:17.010Z,20.67
2019-05-20T15:08:45.824Z,20.07
2019-05-20T15:11:15.033Z,18.17
2019-05-20T15:13:43.987Z,18.63
2019-05-20T15:16:12.841Z,19.30
2019-05-20T15:18:41.689Z,17.40
2019-05-20T15:21:10.563Z,15.73
2019-05-20T15:23:39.747Z,15.83
2019-05-20T15:26:08.647Z,12.30
2019-05-20T15:28:37.527Z,14.30
2019-05-20T15:31:06.369Z,9.80
2019-05-20T15:33:35.158Z,8.33
2019-05-20T15:36:04.137Z,10.63
2019-05-20T15:38:32.940Z,7.70
2019-05-20T15:41:01.845Z,7.83
2019-05-20T15:43:30.717Z,10.43
2019-05-20T15:45:59.609Z,10.20
2019-05-20T15:48:28.422Z,9.20
2019-05-20T15:50:57.315Z,9.63
2019-05-20T15:53:26.324Z,11.07
2019-05-20T15:55:55.282Z,9.93
2019-05-20T15:58:24.173Z,8.30
2019-05-20T16:00:53.348Z,9.47
2019-05-20T16:03:22.215Z,9.03
2019-05-20T16:05:51.307Z,9.60
2019-05-20T16:08:20.714Z,9.43
2019-05-20T16:10:49.577Z,9.00
2019-05-20T16:13:18.380Z,9.90
2019-05-20T16:15:47.265Z,10.20
2019-05-20T16:18:16.293Z,13.03
2019-05-20T16:20:45.279Z,12.30
2019-05-20T16:23:14.549Z,12.30
2019-05-20T16:25:44.302Z,11.70
2019-05-20T16:28:13.096Z,12.20
2019-05-20T16:30:41.936Z,11.43
2019-05-20T16:33:10.847Z,17.50
2019-05-20T16:35:39.664Z,10.80
2019-05-20T16:38:08.533Z,10.50
2019-05-20T16:40:37.448Z,10.97
2019-05-20T16:43:06.709Z,12.00
2019-05-20T16:45:35.634Z,11.57
2019-05-20T16:48:04.624Z,12.13
2019-05-20T16:50:33.595Z,21.17
2019-05-20T16:53:02.444Z,15.33
2019-05-20T16:55:31.422Z,14.27
2019-05-20T16:58:00.300Z,11.80
2019-05-20T17:00:32.042Z,11.60
2019-05-20T17:02:59.704Z,11.23
2019-05-20T17:05:28.582Z,11.00
2019-05-20T17:07:57.379Z,9.77
2019-05-20T17:10:26.517Z,9.40
2019-05-20T17:12:55.454Z,8.40
2019-05-20T17:15:24.424Z,8.37
2019-05-20T17:17:53.226Z,8.20
2019-05-20T17:20:22.369Z,8.83
2019-05-20T17:22:51.793Z,8.10
2019-05-20T17:25:20.587Z,9.70
2019-05-20T17:27:49.464Z,9.80
2019-05-20T17:30:18.793Z,9.30
2019-05-20T17:32:47.620Z,11.23
2019-05-20T17:35:16.570Z,10.17
2019-05-20T17:37:45.547Z,11.10
2019-05-20T17:40:15.082Z,10.10
2019-05-20T17:42:43.915Z,9.60
2019-05-20T17:45:14.928Z,11.13
2019-05-20T17:47:43.895Z,12.73
2019-05-20T17:50:13.198Z,13.67
2019-05-20T17:52:42.008Z,11.73
2019-05-20T17:55:11.263Z,11.90
2019-05-20T17:57:40.068Z,11.53
2019-05-20T18:00:11.717Z,12.23
2019-05-20T18:02:40.521Z,11.97
2019-05-20T18:05:09.581Z,22.00
2019-05-20T18:07:38.460Z,12.03
2019-05-20T18:10:08.379Z,9.80
2019-05-20T18:12:37.505Z,10.57
2019-05-20T18:15:07.076Z,12.93
2019-05-20T18:17:36.424Z,10.53
2019-05-20T18:20:05.863Z,11.03
2019-05-20T18:22:35.437Z,11.80
2019-05-20T18:25:04.517Z,16.93
2019-05-20T18:27:33.365Z,17.03
2019-05-20T18:30:02.334Z,16.93
2019-05-20T18:32:31.655Z,12.30
2019-05-20T18:35:00.488Z,12.67
2019-05-20T18:37:30.213Z,13.17
2019-05-20T18:40:12.793Z,13.07
2019-05-20T18:42:29.808Z,12.60
2019-05-20T18:44:58.719Z,13.83
2019-05-20T18:47:27.669Z,12.50
2019-05-20T18:49:56.540Z,11.97
2019-05-20T18:52:25.437Z,11.23
2019-05-20T18:54:54.309Z,10.83
2019-05-20T18:57:23.197Z,12.10
2019-05-20T18:59:52.256Z,13.87
2019-05-20T19:02:21.484Z,13.80
2019-05-20T19:04:50.963Z,18.37
2019-05-20T19:07:20.187Z,13.70
2019-05-20T19:09:49.402Z,12.33
2019-05-20T19:12:18.770Z,13.40
2019-05-20T19:14:48.117Z,13.00
2019-05-20T19:17:17.028Z,13.97
2019-05-20T19:19:46.011Z,15.03
2019-05-20T19:22:14.912Z,14.60
2019-05-20T19:24:44.096Z,14.33
2019-05-20T19:27:13.053Z,11.20
2019-05-20T19:29:42.406Z,13.03
2019-05-20T19:32:11.877Z,14.10
2019-05-20T19:34:40.694Z,11.07
2019-05-20T19:37:09.596Z,13.07
2019-05-20T19:39:38.386Z,21.20
2019-05-20T19:42:07.235Z,12.40
2019-05-20T19:44:36.333Z,12.27
2019-05-20T19:47:05.229Z,10.70
2019-05-20T19:49:34.363Z,11.00
2019-05-20T19:52:03.181Z,12.27
2019-05-20T19:54:32.334Z,12.07
2019-05-20T19:57:01.305Z,14.27
2019-05-20T19:59:30.265Z,13.23
2019-05-20T20:02:18.339Z,10.67
2019-05-20T20:04:47.300Z,9.80
2019-05-20T20:07:16.103Z,8.33
2019-05-20T20:09:44.980Z,9.53
2019-05-20T20:12:13.856Z,8.73
2019-05-20T20:14:42.675Z,9.00
2019-05-20T20:17:11.748Z,9.77
2019-05-20T20:19:40.829Z,8.80
2019-05-20T20:22:09.699Z,9.87
2019-05-20T20:24:39.201Z,9.90
2019-05-20T20:27:08.359Z,10.63
2019-05-20T20:29:37.370Z,10.10
2019-05-20T20:32:06.190Z,10.70
2019-05-20T20:34:35.137Z,8.73
2019-05-20T20:37:04.059Z,11.87
2019-05-20T20:39:34.489Z,9.30
2019-05-20T20:42:03.765Z,9.60
2019-05-20T20:44:33.016Z,11.10
2019-05-20T20:47:01.805Z,10.47
2019-05-20T20:49:30.655Z,10.90
2019-05-20T20:51:59.469Z,17.80
2019-05-20T20:54:28.268Z,13.03
2019-05-20T20:56:57.344Z,13.40
2019-05-20T20:59:26.460Z,10.50
2019-05-20T21:01:59.004Z,11.00
2019-05-20T21:04:25.820Z,13.77
2019-05-20T21:06:54.892Z,11.47
2019-05-20T21:09:24.050Z,14.70
2019-05-20T21:11:53.002Z,13.40
2019-05-20T21:14:21.873Z,14.30
2019-05-20T21:16:50.784Z,15.20
2019-05-20T21:19:19.841Z,14.50
2019-05-20T21:21:48.656Z,14.67
2019-05-20T21:24:17.473Z,13.20
2019-05-20T21:26:46.301Z,12.67
2019-05-20T21:29:15.120Z,16.77
2019-05-20T21:31:44.273Z,12.50
2019-05-20T21:34:13.162Z,14.80
2019-05-20T21:36:47.557Z,11.90
2019-05-20T21:39:12.560Z,12.67
2019-05-20T21:41:41.715Z,15.17
2019-05-20T21:44:10.602Z,15.70
2019-05-20T21:46:39.427Z,17.10
2019-05-20T21:49:08.308Z,22.87
2019-05-20T21:51:37.244Z,27.80
2019-05-20T21:54:06.064Z,32.77
2019-05-20T21:56:35.190Z,35.80
2019-05-20T21:59:04.181Z,36.83
2019-05-20T22:01:33.366Z,35.13
2019-05-20T22:04:02.745Z,35.17
2019-05-20T22:06:31.557Z,40.67
2019-05-20T22:09:00.364Z,41.10
2019-05-20T22:11:29.814Z,40.03
2019-05-20T22:13:58.831Z,37.93
2019-05-20T22:16:29.737Z,36.93
2019-05-20T22:18:59.191Z,37.97
2019-05-20T22:21:33.198Z,39.07
2019-05-20T22:24:04.141Z,36.77
2019-05-20T22:26:32.936Z,38.47
2019-05-20T22:29:01.776Z,36.43
2019-05-20T22:31:30.708Z,38.17
2019-05-20T22:33:59.765Z,38.00
2019-05-20T22:36:28.568Z,39.63
2019-05-20T22:38:57.377Z,36.97
2019-05-20T22:41:26.189Z,42.30
2019-05-20T22:43:55.090Z,35.87
2019-05-20T22:46:23.946Z,36.67
2019-05-20T22:48:52.741Z,36.37
2019-05-20T22:51:21.553Z,38.43
2019-05-20T22:53:50.373Z,35.00
2019-05-20T22:56:19.696Z,37.10
2019-05-20T22:58:48.568Z,35.43
2019-05-20T23:01:17.808Z,33.17
2019-05-20T23:03:56.147Z,35.13
2019-05-20T23:06:17.454Z,33.23
2019-05-20T23:08:46.258Z,34.77
2019-05-20T23:11:15.402Z,34.20
2019-05-20T23:13:44.250Z,35.50
2019-05-20T23:16:13.077Z,31.57
2019-05-20T23:18:41.906Z,28.37
2019-05-20T23:21:10.861Z,30.27
2019-05-20T23:23:39.656Z,30.03
2019-05-20T23:26:08.477Z,28.63
2019-05-20T23:28:37.388Z,27.90
2019-05-20T23:31:06.491Z,30.53
2019-05-20T23:33:35.417Z,29.97
2019-05-20T23:36:04.352Z,31.60
2019-05-20T23:38:33.185Z,30.50
2019-05-20T23:41:02.135Z,34.13
2019-05-20T23:43:31.124Z,39.50
2019-05-20T23:45:59.952Z,32.13
2019-05-20T23:48:29.028Z,34.83
2019-05-20T23:50:58.150Z,34.80
2019-05-20T23:53:27.230Z,36.77
2019-05-20T23:55:56.443Z,35.70
2019-05-20T23:58:25.313Z,33.93
